<?xml version="1.0" encoding="UTF-8" standalone="no" ?>
<gpx xmlns="http://www.topografix.com/GPX/1/1" xmlns:xsi="http://www.w3.org/2001/XMLSchema-instance" xsi:schemaLocation="http://www.topografix.com/GPX/1/1 http://www.topografix.com/GPX/1/1/gpx.xsd" version="1.1" creator="VisuGPX - https://www.visugpx.com">
  <metadata>
    <name>Balade de Jean Sans Peur</name>
    <desc><![CDATA[
]]></desc>
  </metadata>
  <trk>
    <name><![CDATA[Randonnée du 27/01/2020 à 12:42]]></name>
    <trkseg>
      <trkpt lat="50.62122" lon="5.92157">
        <ele>264</ele>
        <time>2020-01-27T14:01:30 01:00</time>
      </trkpt>
      <trkpt lat="50.6209" lon="5.9206">
        <ele>262</ele>
        <time>2020-01-27T14:01:35 01:00</time>
      </trkpt>
      <trkpt lat="50.62071" lon="5.92013">
        <ele>262</ele>
        <time>2020-01-27T14:01:40 01:00</time>
      </trkpt>
      <trkpt lat="50.62051" lon="5.92011">
        <ele>264</ele>
        <time>2020-01-27T14:01:45 01:00</time>
      </trkpt>
      <trkpt lat="50.61981" lon="5.92062">
        <ele>268</ele>
        <time>2020-01-27T14:01:50 01:00</time>
      </trkpt>
      <trkpt lat="50.6196" lon="5.91968">
        <ele>269</ele>
        <time>2020-01-27T14:01:55 01:00</time>
      </trkpt>
      <trkpt lat="50.6195" lon="5.91886">
        <ele>270</ele>
        <time>2020-01-27T14:02:00 01:00</time>
      </trkpt>
      <trkpt lat="50.61886" lon="5.91925">
        <ele>274</ele>
        <time>2020-01-27T14:02:05 01:00</time>
      </trkpt>
      <trkpt lat="50.61815" lon="5.91657">
        <ele>284</ele>
        <time>2020-01-27T14:02:10 01:00</time>
      </trkpt>
      <trkpt lat="50.61746" lon="5.9152">
        <ele>285</ele>
        <time>2020-01-27T14:02:15 01:00</time>
      </trkpt>
      <trkpt lat="50.61758" lon="5.91427">
        <ele>279</ele>
        <time>2020-01-27T14:02:20 01:00</time>
      </trkpt>
      <trkpt lat="50.61811" lon="5.91281">
        <ele>254</ele>
        <time>2020-01-27T14:02:25 01:00</time>
      </trkpt>
      <trkpt lat="50.61838" lon="5.91251">
        <ele>250</ele>
        <time>2020-01-27T14:02:30 01:00</time>
      </trkpt>
      <trkpt lat="50.61893" lon="5.91208">
        <ele>239</ele>
        <time>2020-01-27T14:02:35 01:00</time>
      </trkpt>
      <trkpt lat="50.61915" lon="5.91178">
        <ele>236</ele>
        <time>2020-01-27T14:02:40 01:00</time>
      </trkpt>
      <trkpt lat="50.61945" lon="5.91155">
        <ele>235</ele>
        <time>2020-01-27T14:02:45 01:00</time>
      </trkpt>
      <trkpt lat="50.61976" lon="5.91103">
        <ele>239</ele>
        <time>2020-01-27T14:02:50 01:00</time>
      </trkpt>
      <trkpt lat="50.61928" lon="5.91047">
        <ele>227</ele>
        <time>2020-01-27T14:02:55 01:00</time>
      </trkpt>
      <trkpt lat="50.61905" lon="5.91017">
        <ele>221</ele>
        <time>2020-01-27T14:03:00 01:00</time>
      </trkpt>
      <trkpt lat="50.61872" lon="5.91028">
        <ele>215</ele>
        <time>2020-01-27T14:03:05 01:00</time>
      </trkpt>
      <trkpt lat="50.61864" lon="5.90979">
        <ele>215</ele>
        <time>2020-01-27T14:03:10 01:00</time>
      </trkpt>
      <trkpt lat="50.6187" lon="5.90951">
        <ele>218</ele>
        <time>2020-01-27T14:03:15 01:00</time>
      </trkpt>
      <trkpt lat="50.61885" lon="5.90921">
        <ele>221</ele>
        <time>2020-01-27T14:03:20 01:00</time>
      </trkpt>
      <trkpt lat="50.61946" lon="5.90805">
        <ele>227</ele>
        <time>2020-01-27T14:03:25 01:00</time>
      </trkpt>
      <trkpt lat="50.62022" lon="5.90635">
        <ele>229</ele>
        <time>2020-01-27T14:03:30 01:00</time>
      </trkpt>
      <trkpt lat="50.62033" lon="5.9059">
        <ele>228</ele>
        <time>2020-01-27T14:03:35 01:00</time>
      </trkpt>
      <trkpt lat="50.6206" lon="5.90556">
        <ele>228</ele>
        <time>2020-01-27T14:03:40 01:00</time>
      </trkpt>
      <trkpt lat="50.62153" lon="5.90541">
        <ele>227</ele>
        <time>2020-01-27T14:03:45 01:00</time>
      </trkpt>
      <trkpt lat="50.62202" lon="5.90535">
        <ele>227</ele>
        <time>2020-01-27T14:03:50 01:00</time>
      </trkpt>
      <trkpt lat="50.62213" lon="5.90406">
        <ele>231</ele>
        <time>2020-01-27T14:03:55 01:00</time>
      </trkpt>
      <trkpt lat="50.62198" lon="5.9035">
        <ele>232</ele>
        <time>2020-01-27T14:04:00 01:00</time>
      </trkpt>
      <trkpt lat="50.62187" lon="5.90305">
        <ele>231</ele>
        <time>2020-01-27T14:04:05 01:00</time>
      </trkpt>
      <trkpt lat="50.62186" lon="5.90271">
        <ele>231</ele>
        <time>2020-01-27T14:04:10 01:00</time>
      </trkpt>
      <trkpt lat="50.62165" lon="5.90185">
        <ele>229</ele>
        <time>2020-01-27T14:04:15 01:00</time>
      </trkpt>
      <trkpt lat="50.62154" lon="5.90086">
        <ele>235</ele>
        <time>2020-01-27T14:04:20 01:00</time>
      </trkpt>
      <trkpt lat="50.62107" lon="5.90024">
        <ele>244</ele>
        <time>2020-01-27T14:04:25 01:00</time>
      </trkpt>
      <trkpt lat="50.62067" lon="5.89891">
        <ele>257</ele>
        <time>2020-01-27T14:04:30 01:00</time>
      </trkpt>
      <trkpt lat="50.62048" lon="5.89854">
        <ele>260</ele>
        <time>2020-01-27T14:04:35 01:00</time>
      </trkpt>
      <trkpt lat="50.62015" lon="5.89758">
        <ele>264</ele>
        <time>2020-01-27T14:04:40 01:00</time>
      </trkpt>
      <trkpt lat="50.61992" lon="5.89726">
        <ele>265</ele>
        <time>2020-01-27T14:04:45 01:00</time>
      </trkpt>
      <trkpt lat="50.61886" lon="5.89423">
        <ele>270</ele>
        <time>2020-01-27T14:04:50 01:00</time>
      </trkpt>
      <trkpt lat="50.61842" lon="5.89344">
        <ele>271</ele>
        <time>2020-01-27T14:04:55 01:00</time>
      </trkpt>
      <trkpt lat="50.61832" lon="5.89309">
        <ele>271</ele>
        <time>2020-01-27T14:05:00 01:00</time>
      </trkpt>
      <trkpt lat="50.61811" lon="5.89148">
        <ele>272</ele>
        <time>2020-01-27T14:05:05 01:00</time>
      </trkpt>
      <trkpt lat="50.61777" lon="5.89082">
        <ele>275</ele>
        <time>2020-01-27T14:05:10 01:00</time>
      </trkpt>
      <trkpt lat="50.6163" lon="5.88822">
        <ele>284</ele>
        <time>2020-01-27T14:05:15 01:00</time>
      </trkpt>
      <trkpt lat="50.61593" lon="5.88548">
        <ele>290</ele>
        <time>2020-01-27T14:05:20 01:00</time>
      </trkpt>
      <trkpt lat="50.61653" lon="5.88584">
        <ele>291</ele>
        <time>2020-01-27T14:05:25 01:00</time>
      </trkpt>
      <trkpt lat="50.61747" lon="5.88709">
        <ele>287</ele>
        <time>2020-01-27T14:05:30 01:00</time>
      </trkpt>
      <trkpt lat="50.61897" lon="5.88756">
        <ele>283</ele>
        <time>2020-01-27T14:05:35 01:00</time>
      </trkpt>
      <trkpt lat="50.61951" lon="5.88829">
        <ele>282</ele>
        <time>2020-01-27T14:05:40 01:00</time>
      </trkpt>
      <trkpt lat="50.62033" lon="5.88949">
        <ele>277</ele>
        <time>2020-01-27T14:05:45 01:00</time>
      </trkpt>
      <trkpt lat="50.62132" lon="5.89138">
        <ele>274</ele>
        <time>2020-01-27T14:05:50 01:00</time>
      </trkpt>
      <trkpt lat="50.62205" lon="5.89301">
        <ele>270</ele>
        <time>2020-01-27T14:05:55 01:00</time>
      </trkpt>
      <trkpt lat="50.62252" lon="5.89402">
        <ele>268</ele>
        <time>2020-01-27T14:06:00 01:00</time>
      </trkpt>
      <trkpt lat="50.62301" lon="5.89464">
        <ele>264</ele>
        <time>2020-01-27T14:06:05 01:00</time>
      </trkpt>
      <trkpt lat="50.62488" lon="5.89644">
        <ele>255</ele>
        <time>2020-01-27T14:06:10 01:00</time>
      </trkpt>
      <trkpt lat="50.62548" lon="5.89717">
        <ele>250</ele>
        <time>2020-01-27T14:06:15 01:00</time>
      </trkpt>
      <trkpt lat="50.62531" lon="5.89769">
        <ele>247</ele>
        <time>2020-01-27T14:06:20 01:00</time>
      </trkpt>
      <trkpt lat="50.62568" lon="5.89906">
        <ele>241</ele>
        <time>2020-01-27T14:06:25 01:00</time>
      </trkpt>
      <trkpt lat="50.62569" lon="5.89923">
        <ele>240</ele>
        <time>2020-01-27T14:06:30 01:00</time>
      </trkpt>
      <trkpt lat="50.62637" lon="5.90039">
        <ele>240</ele>
        <time>2020-01-27T14:06:35 01:00</time>
      </trkpt>
      <trkpt lat="50.62657" lon="5.90099">
        <ele>243</ele>
        <time>2020-01-27T14:06:40 01:00</time>
      </trkpt>
      <trkpt lat="50.62716" lon="5.90146">
        <ele>245</ele>
        <time>2020-01-27T14:06:45 01:00</time>
      </trkpt>
      <trkpt lat="50.62756" lon="5.90183">
        <ele>246</ele>
        <time>2020-01-27T14:06:50 01:00</time>
      </trkpt>
      <trkpt lat="50.62831" lon="5.90213">
        <ele>250</ele>
        <time>2020-01-27T14:06:55 01:00</time>
      </trkpt>
      <trkpt lat="50.62881" lon="5.90303">
        <ele>259</ele>
        <time>2020-01-27T14:07:00 01:00</time>
      </trkpt>
      <trkpt lat="50.62897" lon="5.9035">
        <ele>264</ele>
        <time>2020-01-27T14:07:05 01:00</time>
      </trkpt>
      <trkpt lat="50.62912" lon="5.90382">
        <ele>265</ele>
        <time>2020-01-27T14:07:10 01:00</time>
      </trkpt>
      <trkpt lat="50.62914" lon="5.90483">
        <ele>269</ele>
        <time>2020-01-27T14:07:15 01:00</time>
      </trkpt>
      <trkpt lat="50.62892" lon="5.90537">
        <ele>269</ele>
        <time>2020-01-27T14:07:20 01:00</time>
      </trkpt>
      <trkpt lat="50.62832" lon="5.9079">
        <ele>258</ele>
        <time>2020-01-27T14:07:25 01:00</time>
      </trkpt>
      <trkpt lat="50.62835" lon="5.90994">
        <ele>240</ele>
        <time>2020-01-27T14:07:30 01:00</time>
      </trkpt>
      <trkpt lat="50.62847" lon="5.91026">
        <ele>242</ele>
        <time>2020-01-27T14:07:35 01:00</time>
      </trkpt>
      <trkpt lat="50.62847" lon="5.91058">
        <ele>245</ele>
        <time>2020-01-27T14:07:40 01:00</time>
      </trkpt>
      <trkpt lat="50.62809" lon="5.91114">
        <ele>255</ele>
        <time>2020-01-27T14:07:45 01:00</time>
      </trkpt>
      <trkpt lat="50.62817" lon="5.91215">
        <ele>262</ele>
        <time>2020-01-27T14:07:50 01:00</time>
      </trkpt>
      <trkpt lat="50.62764" lon="5.91421">
        <ele>271</ele>
        <time>2020-01-27T14:07:55 01:00</time>
      </trkpt>
      <trkpt lat="50.62704" lon="5.91489">
        <ele>272</ele>
        <time>2020-01-27T14:08:00 01:00</time>
      </trkpt>
      <trkpt lat="50.6267" lon="5.9156">
        <ele>273</ele>
        <time>2020-01-27T14:08:05 01:00</time>
      </trkpt>
      <trkpt lat="50.62561" lon="5.9168">
        <ele>273</ele>
        <time>2020-01-27T14:08:10 01:00</time>
      </trkpt>
      <trkpt lat="50.62512" lon="5.91751">
        <ele>274</ele>
        <time>2020-01-27T14:08:15 01:00</time>
      </trkpt>
      <trkpt lat="50.62492" lon="5.91783">
        <ele>274</ele>
        <time>2020-01-27T14:08:20 01:00</time>
      </trkpt>
      <trkpt lat="50.6244" lon="5.91811">
        <ele>274</ele>
        <time>2020-01-27T14:08:25 01:00</time>
      </trkpt>
      <trkpt lat="50.62414" lon="5.91839">
        <ele>274</ele>
        <time>2020-01-27T14:08:30 01:00</time>
      </trkpt>
      <trkpt lat="50.62395" lon="5.91878">
        <ele>271</ele>
        <time>2020-01-27T14:08:35 01:00</time>
      </trkpt>
      <trkpt lat="50.62345" lon="5.9191">
        <ele>265</ele>
        <time>2020-01-27T14:08:40 01:00</time>
      </trkpt>
      <trkpt lat="50.62307" lon="5.91903">
        <ele>261</ele>
        <time>2020-01-27T14:08:45 01:00</time>
      </trkpt>
      <trkpt lat="50.62291" lon="5.91891">
        <ele>259</ele>
        <time>2020-01-27T14:08:50 01:00</time>
      </trkpt>
      <trkpt lat="50.62279" lon="5.91871">
        <ele>258</ele>
        <time>2020-01-27T14:08:55 01:00</time>
      </trkpt>
      <trkpt lat="50.62267" lon="5.91879">
        <ele>256</ele>
        <time>2020-01-27T14:09:00 01:00</time>
      </trkpt>
      <trkpt lat="50.6226" lon="5.91909">
        <ele>255</ele>
        <time>2020-01-27T14:09:05 01:00</time>
      </trkpt>
      <trkpt lat="50.62262" lon="5.91958">
        <ele>256</ele>
        <time>2020-01-27T14:09:10 01:00</time>
      </trkpt>
      <trkpt lat="50.62253" lon="5.91997">
        <ele>256</ele>
        <time>2020-01-27T14:09:15 01:00</time>
      </trkpt>
      <trkpt lat="50.62219" lon="5.92017">
        <ele>258</ele>
        <time>2020-01-27T14:09:20 01:00</time>
      </trkpt>
      <trkpt lat="50.62205" lon="5.92041">
        <ele>259</ele>
        <time>2020-01-27T14:09:25 01:00</time>
      </trkpt>
      <trkpt lat="50.62212" lon="5.92109">
        <ele>260</ele>
        <time>2020-01-27T14:09:30 01:00</time>
      </trkpt>
      <trkpt lat="50.62184" lon="5.92163">
        <ele>261</ele>
        <time>2020-01-27T14:09:35 01:00</time>
      </trkpt>
      <trkpt lat="50.62158" lon="5.92218">
        <ele>263</ele>
        <time>2020-01-27T14:09:40 01:00</time>
      </trkpt>
      <trkpt lat="50.62146" lon="5.92212">
        <ele>264</ele>
        <time>2020-01-27T14:09:45 01:00</time>
      </trkpt>
      <trkpt lat="50.62122" lon="5.92161">
        <ele>264</ele>
        <time>2020-01-27T14:09:50 01:00</time>
      </trkpt>
      <trkpt lat="50.62121" lon="5.92155">
        <ele>264</ele>
        <time>2020-01-27T14:09:55 01:00</time>
      </trkpt>
    </trkseg>
  </trk>
</gpx>